Time;durP1;ratioP1;P1;durP2;ratioP2;P2;SDS_P1;SDS_P2;PMS_P1;PMS_P2;Temp;Humidity;BMP_temperature;BMP_pressure;BME280_temperature;BME280_humidity;BME280_pressure;Samples;Min_cycle;Max_cycle;Signal;HPM_P1;HPM_P2
2023/04/01 00:00:19;;;;;;;13.30;6.40;;;9.10;99.90;;;;;;5011025;28;20171;-88
2023/04/01 00:02:45;;;;;;;13.55;6.35;;;9.10;99.90;;;;;;5028881;28;20034;-86
2023/04/01 00:05:11;;;;;;;13.57;6.47;;;9.10;99.90;;;;;;5025767;28;20060;-88
2023/04/01 00:07:38;;;;;;;13.20;6.75;;;9.10;99.90;;;;;;5010700;28;20025;-87
2023/04/01 00:10:05;;;;;;;16.95;7.20;;;9.10;99.90;;;;;;5026326;28;20048;-87
2023/04/01 00:12:30;;;;;;;14.90;6.53;;;9.10;99.90;;;;;;5010669;28;20040;-87
2023/04/01 00:14:56;;;;;;;17.83;7.75;;;9.00;99.90;;;;;;5027507;28;20033;-87
2023/04/01 00:17:22;;;;;;;13.95;7.03;;;9.00;99.90;;;;;;5010951;28;20029;-86
2023/04/01 00:19:48;;;;;;;19.60;7.07;;;9.00;99.90;;;;;;5013738;28;20058;-87
2023/04/01 00:22:13;;;;;;;17.42;8.00;;;9.00;99.90;;;;;;5025866;28;20136;-87
2023/04/01 00:24:39;;;;;;;17.13;7.68;;;9.00;99.90;;;;;;5030224;28;20056;-87
2023/04/01 00:27:05;;;;;;;18.35;8.57;;;9.00;99.90;;;;;;5026673;28;20038;-87
2023/04/01 00:29:31;;;;;;;17.60;7.50;;;9.00;99.90;;;;;;5021403;28;20188;-87
2023/04/01 00:31:57;;;;;;;18.58;7.88;;;9.00;99.90;;;;;;5027463;28;20389;-87
2023/04/01 00:34:23;;;;;;;14.07;8.20;;;9.00;99.90;;;;;;5012195;28;20077;-87
2023/04/01 00:36:49;;;;;;;15.13;7.93;;;9.00;99.90;;;;;;5007016;28;20022;-87
2023/04/01 00:39:15;;;;;;;15.48;8.13;;;9.00;99.90;;;;;;5004501;28;20171;-88
2023/04/01 00:41:41;;;;;;;17.17;8.15;;;9.00;99.90;;;;;;5010706;28;20057;-86
2023/04/01 00:44:28;;;;;;;14.98;7.93;;;9.00;99.90;;;;;;5022753;28;20047;-88
2023/04/01 00:46:54;;;;;;;15.63;7.47;;;9.00;99.90;;;;;;5028999;28;20082;-87
2023/04/01 00:49:23;;;;;;;15.13;7.45;;;9.00;99.90;;;;;;5030191;28;20380;-87
2023/04/01 00:51:52;;;;;;;16.88;8.05;;;8.90;99.90;;;;;;5013389;28;20448;-87
2023/04/01 00:54:20;;;;;;;17.08;8.32;;;8.90;99.90;;;;;;5009187;28;20091;-87
2023/04/01 00:56:51;;;;;;;20.17;8.77;;;8.90;99.90;;;;;;5027255;28;20052;-86
2023/04/01 00:59:22;;;;;;;16.52;7.65;;;8.90;99.90;;;;;;5011314;28;20036;-86
2023/04/01 01:01:47;;;;;;;;;;;8.90;99.90;;;;;;5010730;28;20034;-86
2023/04/01 01:04:28;;;;;;;16.90;7.80;;;8.90;99.90;;;;;;5008272;28;19985;-88
2023/04/01 01:07:19;;;;;;;15.90;7.75;;;8.90;99.90;;;;;;5008332;28;20029;-87
2023/04/01 01:10:19;;;;;;;13.63;7.28;;;8.90;99.90;;;;;;5028691;28;20103;-87
2023/04/01 01:12:46;;;;;;;15.93;8.87;;;8.90;99.90;;;;;;5026888;28;20053;-86
2023/04/01 01:15:41;;;;;;;20.05;8.50;;;8.90;99.90;;;;;;5011594;28;20036;-88
2023/04/01 01:18:18;;;;;;;16.15;7.60;;;8.90;99.90;;;;;;5013208;28;20045;-86
2023/04/01 01:20:47;;;;;;;18.67;7.88;;;8.90;99.90;;;;;;5018595;28;20029;-86
2023/04/01 01:23:50;;;;;;;15.80;8.57;;;8.90;99.90;;;;;;5012316;28;20033;-86
2023/04/01 01:26:57;;;;;;;15.07;8.05;;;8.90;99.90;;;;;;5021579;28;20041;-87
2023/04/01 01:29:59;;;;;;;18.50;8.30;;;8.90;99.90;;;;;;5030134;28;20029;-87
2023/04/01 01:32:51;;;;;;;16.00;8.13;;;8.90;99.90;;;;;;5032598;28;20025;-87
2023/04/01 01:35:34;;;;;;;17.88;8.95;;;8.90;99.90;;;;;;5009575;28;20449;-86
2023/04/01 01:38:14;;;;;;;20.55;8.77;;;8.90;99.90;;;;;;5004408;28;20037;-87
2023/04/01 01:40:47;;;;;;;15.87;10.27;;;8.90;99.90;;;;;;5024295;28;20503;-87
2023/04/01 01:43:17;;;;;;;19.48;9.82;;;8.90;99.90;;;;;;5023764;28;20029;-87
2023/04/01 01:45:54;;;;;;;17.55;9.70;;;8.90;99.90;;;;;;5010493;28;20056;-87
2023/04/01 01:48:20;;;;;;;17.92;9.70;;;9.00;99.90;;;;;;5019998;28;20492;-87
2023/04/01 01:50:47;;;;;;;21.00;10.07;;;9.00;99.90;;;;;;5028104;28;20085;-87
2023/04/01 01:53:13;;;;;;;16.88;9.75;;;8.90;99.90;;;;;;5025440;28;20342;-87
2023/04/01 01:55:42;;;;;;;15.70;9.30;;;8.90;99.90;;;;;;5010245;28;20107;-87
2023/04/01 01:58:16;;;;;;;19.38;9.68;;;9.00;99.90;;;;;;5027523;28;20033;-87
2023/04/01 02:00:45;;;;;;;20.85;9.57;;;9.00;99.90;;;;;;5025970;28;20094;-88
2023/04/01 02:03:13;;;;;;;16.95;9.73;;;9.00;99.90;;;;;;5028988;28;20101;-87
2023/04/01 02:05:39;;;;;;;18.80;9.18;;;9.00;99.90;;;;;;5008011;28;20183;-87
2023/04/01 02:08:16;;;;;;;20.70;9.30;;;9.00;99.90;;;;;;5028663;28;20037;-86
2023/04/01 02:10:49;;;;;;;15.48;8.82;;;8.90;99.90;;;;;;5028234;28;20372;-86
2023/04/01 02:13:23;;;;;;;21.17;9.75;;;8.90;99.90;;;;;;5011141;28;20013;-87
2023/04/01 02:15:51;;;;;;;18.63;9.32;;;8.90;99.90;;;;;;5010391;28;20037;-87
2023/04/01 02:18:19;;;;;;;17.02;8.60;;;8.90;99.90;;;;;;5030287;28;20445;-86
2023/04/01 02:20:45;;;;;;;16.10;8.63;;;8.90;99.90;;;;;;5010093;28;20037;-86
2023/04/01 02:23:12;;;;;;;15.45;8.73;;;8.80;99.90;;;;;;5011986;28;20089;-86
2023/04/01 02:25:39;;;;;;;16.58;8.18;;;8.90;99.90;;;;;;5019369;28;20156;-86
2023/04/01 02:28:07;;;;;;;13.85;8.23;;;8.80;99.90;;;;;;5007304;28;20093;-89
2023/04/01 02:30:35;;;;;;;17.95;8.93;;;8.80;99.90;;;;;;5014357;28;20029;-86
2023/04/01 02:33:02;;;;;;;15.32;8.93;;;8.80;99.90;;;;;;5032349;28;20400;-86
2023/04/01 02:35:28;;;;;;;17.02;8.45;;;8.90;99.90;;;;;;5028047;28;20425;-86
2023/04/01 02:37:56;;;;;;;16.35;8.52;;;8.80;99.90;;;;;;5012597;28;20048;-86
2023/04/01 02:40:21;;;;;;;19.73;9.73;;;8.80;99.90;;;;;;5030283;28;20434;-87
2023/04/01 02:42:47;;;;;;;16.75;9.05;;;8.80;99.90;;;;;;5020544;28;20070;-86
2023/04/01 02:45:14;;;;;;;16.90;8.85;;;8.80;99.90;;;;;;5040184;28;20021;-85
2023/04/01 02:47:40;;;;;;;14.18;8.07;;;8.80;99.90;;;;;;5031335;28;20029;-87
2023/04/01 02:50:06;;;;;;;15.00;8.70;;;8.80;99.90;;;;;;5034293;28;20037;-88
2023/04/01 02:52:32;;;;;;;13.73;8.00;;;8.80;99.90;;;;;;5010584;28;20095;-87
2023/04/01 02:54:58;;;;;;;16.92;8.52;;;8.80;99.90;;;;;;5027357;28;20047;-87
2023/04/01 02:57:24;;;;;;;17.60;9.23;;;8.80;99.90;;;;;;5009920;28;20081;-87
2023/04/01 02:59:49;;;;;;;19.60;8.68;;;8.80;99.90;;;;;;5010980;28;20085;-87
2023/04/01 03:02:16;;;;;;;15.70;8.07;;;8.80;99.90;;;;;;5009869;28;20112;-86
2023/04/01 03:04:41;;;;;;;16.10;7.97;;;8.80;99.90;;;;;;5010821;28;20148;-85
2023/04/01 03:07:09;;;;;;;16.75;8.88;;;8.80;99.90;;;;;;5025719;28;20080;-87
2023/04/01 03:09:35;;;;;;;13.88;8.18;;;8.80;99.90;;;;;;5010003;28;20080;-88
2023/04/01 03:12:01;;;;;;;15.35;8.82;;;8.80;99.90;;;;;;5010617;28;20482;-86
2023/04/01 03:14:26;;;;;;;15.77;8.13;;;8.80;99.90;;;;;;5029596;28;20033;-86
2023/04/01 03:16:51;;;;;;;15.35;8.18;;;8.80;99.90;;;;;;4997944;28;20121;-86
2023/04/01 03:19:17;;;;;;;14.38;7.97;;;8.80;99.90;;;;;;5028006;28;20025;-87
2023/04/01 03:21:42;;;;;;;17.88;8.30;;;8.80;99.90;;;;;;5008754;28;20033;-86
2023/04/01 03:24:08;;;;;;;17.45;8.23;;;8.80;99.90;;;;;;5030441;28;20061;-87
2023/04/01 03:26:34;;;;;;;15.73;7.95;;;8.80;99.90;;;;;;5013375;28;20092;-87
2023/04/01 03:28:59;;;;;;;13.68;7.50;;;8.80;99.90;;;;;;5032942;28;20086;-87
2023/04/01 03:31:25;;;;;;;13.35;7.63;;;8.90;99.90;;;;;;5013868;28;20152;-87
2023/04/01 03:33:50;;;;;;;14.70;7.82;;;8.90;99.90;;;;;;5037248;28;20105;-86
2023/04/01 03:36:16;;;;;;;12.43;7.72;;;8.90;99.90;;;;;;5028633;28;20034;-87
2023/04/01 03:38:42;;;;;;;13.02;8.02;;;8.90;99.90;;;;;;5023290;28;20033;-86
2023/04/01 03:41:12;;;;;;;14.77;8.10;;;8.90;99.90;;;;;;5013474;28;20072;-87
2023/04/01 03:43:38;;;;;;;17.73;8.10;;;8.90;99.90;;;;;;5026400;28;20460;-87
2023/04/01 03:46:03;;;;;;;17.38;7.63;;;8.90;99.90;;;;;;5019848;28;20284;-87
2023/04/01 03:48:29;;;;;;;16.27;7.82;;;8.90;99.90;;;;;;5029571;28;20029;-87
2023/04/01 03:50:54;;;;;;;13.98;7.68;;;8.90;99.90;;;;;;5019224;28;20092;-87
2023/04/01 03:53:20;;;;;;;16.77;8.32;;;8.90;99.90;;;;;;5032301;28;20346;-87
2023/04/01 03:55:46;;;;;;;12.80;7.78;;;8.90;99.90;;;;;;5013020;28;20079;-87
2023/04/01 03:58:12;;;;;;;14.93;7.88;;;8.90;99.90;;;;;;5032431;28;20073;-87
2023/04/01 04:00:37;;;;;;;16.83;7.63;;;9.00;99.90;;;;;;5031556;28;20041;-87
2023/04/01 04:03:03;;;;;;;12.95;7.60;;;8.90;99.90;;;;;;5017797;28;20382;-87
2023/04/01 04:05:28;;;;;;;15.38;7.80;;;8.90;99.90;;;;;;5011924;28;20386;-87
2023/04/01 04:07:54;;;;;;;13.73;7.85;;;8.90;99.90;;;;;;5015817;28;20037;-86
2023/04/01 04:10:22;;;;;;;15.93;7.35;;;8.90;99.90;;;;;;5030650;28;20123;-86
2023/04/01 04:12:49;;;;;;;13.68;7.45;;;8.90;99.90;;;;;;5009796;28;20471;-88
2023/04/01 04:15:15;;;;;;;13.55;7.15;;;8.90;99.90;;;;;;5022678;28;20112;-87
2023/04/01 04:17:41;;;;;;;15.88;7.28;;;8.90;99.90;;;;;;5012585;28;20127;-87
2023/04/01 04:20:08;;;;;;;14.90;7.00;;;8.90;99.90;;;;;;5015306;28;20123;-87
2023/04/01 04:22:33;;;;;;;11.15;6.88;;;8.90;99.90;;;;;;5013201;28;20453;-87
2023/04/01 04:24:59;;;;;;;10.07;6.72;;;8.90;99.90;;;;;;5010915;28;20132;-87
2023/04/01 04:27:24;;;;;;;11.50;6.45;;;8.90;99.90;;;;;;5001143;28;20046;-87
2023/04/01 04:29:50;;;;;;;15.35;6.95;;;8.90;99.90;;;;;;5012492;28;20535;-86
2023/04/01 04:32:15;;;;;;;13.93;7.05;;;8.90;99.90;;;;;;5004578;28;20025;-86
2023/04/01 04:34:41;;;;;;;10.63;7.10;;;8.90;99.90;;;;;;5011020;28;20033;-86
2023/04/01 04:37:06;;;;;;;15.50;6.88;;;8.90;99.90;;;;;;5022712;28;20060;-86
2023/04/01 04:39:32;;;;;;;12.05;6.28;;;8.90;99.90;;;;;;5014717;28;20578;-86
2023/04/01 04:41:57;;;;;;;12.70;6.72;;;8.90;99.90;;;;;;5025784;28;20025;-85
2023/04/01 04:44:22;;;;;;;9.65;5.65;;;8.90;99.90;;;;;;5009612;28;20243;-85
2023/04/01 04:46:48;;;;;;;9.07;5.47;;;8.90;99.90;;;;;;5009094;28;20024;-86
2023/04/01 04:49:14;;;;;;;8.95;6.03;;;8.90;99.90;;;;;;5010038;28;20056;-86
2023/04/01 04:51:39;;;;;;;10.70;5.43;;;9.00;99.90;;;;;;5022568;28;20030;-87
2023/04/01 04:54:06;;;;;;;8.57;5.75;;;8.90;99.90;;;;;;5007797;28;20447;-86
2023/04/01 04:56:32;;;;;;;8.73;5.65;;;8.90;99.90;;;;;;5013335;28;20044;-85
2023/04/01 04:58:58;;;;;;;11.02;5.60;;;8.90;99.90;;;;;;5008835;28;20033;-85
2023/04/01 05:01:24;;;;;;;8.95;4.95;;;8.90;99.90;;;;;;5026698;28;20025;-86
2023/04/01 05:03:50;;;;;;;8.43;5.38;;;8.90;99.90;;;;;;5009083;28;20311;-86
2023/04/01 05:06:16;;;;;;;8.98;4.90;;;8.90;99.90;;;;;;5004846;28;20091;-86
2023/04/01 05:08:42;;;;;;;7.50;4.43;;;8.90;99.90;;;;;;5027725;28;20025;-85
2023/04/01 05:11:12;;;;;;;8.00;4.70;;;8.90;99.90;;;;;;5026713;28;20060;-85
2023/04/01 05:13:37;;;;;;;10.40;5.18;;;8.90;99.90;;;;;;5001798;28;20189;-86
2023/04/01 05:16:03;;;;;;;7.28;4.40;;;8.90;99.90;;;;;;5023829;28;20469;-85
2023/04/01 05:18:28;;;;;;;8.98;4.47;;;8.90;99.90;;;;;;5003892;28;20127;-86
2023/04/01 05:20:54;;;;;;;8.02;4.18;;;9.00;99.90;;;;;;5005237;28;20392;-85
2023/04/01 05:23:21;;;;;;;10.18;4.72;;;8.90;99.90;;;;;;5028300;28;20132;-90
2023/04/01 05:25:48;;;;;;;7.72;4.78;;;8.90;99.90;;;;;;5023477;28;20041;-88
2023/04/01 05:28:14;;;;;;;9.88;4.75;;;8.90;99.90;;;;;;5013790;28;20543;-88
2023/04/01 05:30:41;;;;;;;7.85;4.05;;;8.90;99.90;;;;;;5034348;28;20120;-88
2023/04/01 05:33:07;;;;;;;10.25;5.25;;;8.90;99.90;;;;;;5039662;28;20167;-89
2023/04/01 05:35:32;;;;;;;9.75;5.28;;;9.00;99.90;;;;;;5031332;28;20103;-89
2023/04/01 05:37:58;;;;;;;10.82;4.85;;;9.00;99.90;;;;;;5019835;28;20128;-88
2023/04/01 05:40:23;;;;;;;11.10;5.38;;;9.00;99.90;;;;;;5018463;28;20456;-89
2023/04/01 05:42:49;;;;;;;9.73;5.45;;;9.00;99.90;;;;;;5013617;28;20172;-88
2023/04/01 05:45:15;;;;;;;10.45;5.53;;;9.00;99.90;;;;;;5013191;28;20025;-89
2023/04/01 05:47:42;;;;;;;12.80;6.03;;;9.00;99.90;;;;;;5017752;28;20200;-89
2023/04/01 05:50:08;;;;;;;11.50;5.85;;;9.00;99.90;;;;;;5016536;28;20690;-88
2023/04/01 05:52:34;;;;;;;10.95;5.43;;;9.00;99.90;;;;;;5042232;28;20387;-89
2023/04/01 05:55:00;;;;;;;9.27;4.25;;;9.00;99.90;;;;;;5023475;28;20037;-89
2023/04/01 05:57:26;;;;;;;6.57;4.47;;;9.00;99.90;;;;;;5021053;28;20079;-90
2023/04/01 05:59:51;;;;;;;8.43;5.03;;;9.00;99.90;;;;;;5023463;28;20056;-90
2023/04/01 06:02:18;;;;;;;9.68;5.55;;;9.00;99.90;;;;;;5022062;28;20033;-89
2023/04/01 06:04:44;;;;;;;8.25;4.55;;;9.00;99.90;;;;;;5023787;28;20037;-89
2023/04/01 06:07:18;;;;;;;9.80;5.03;;;9.00;99.90;;;;;;5014348;28;20057;-88
2023/04/01 06:09:45;;;;;;;11.45;4.95;;;9.00;99.90;;;;;;5012712;28;20028;-89
2023/04/01 06:12:45;;;;;;;7.82;4.57;;;9.00;99.90;;;;;;5036719;28;20039;-88
2023/04/01 06:15:20;;;;;;;8.05;4.47;;;9.00;99.90;;;;;;5011884;28;20025;-89
2023/04/01 06:18:06;;;;;;;10.98;4.68;;;9.10;99.90;;;;;;5022558;28;20034;-89
2023/04/01 06:20:48;;;;;;;7.43;4.25;;;9.10;99.90;;;;;;5015029;28;20068;-87
2023/04/01 06:23:40;;;;;;;11.50;4.35;;;9.10;99.90;;;;;;5035019;28;20089;-88
2023/04/01 06:26:15;;;;;;;10.55;4.28;;;9.10;99.90;;;;;;5021151;28;20045;-88
2023/04/01 06:29:11;;;;;;;7.55;4.43;;;9.30;99.90;;;;;;5015728;28;20034;-87
2023/04/01 06:31:40;;;;;;;8.77;4.10;;;9.20;99.90;;;;;;5036639;28;20037;-88
2023/04/01 06:34:27;;;;;;;10.40;4.90;;;9.20;99.90;;;;;;5019725;28;20097;-88
2023/04/01 06:37:11;;;;;;;8.32;4.25;;;9.20;99.90;;;;;;5034681;28;20057;-89
2023/04/01 06:39:51;;;;;;;7.30;4.50;;;9.20;99.90;;;;;;5009776;28;20478;-86
2023/04/01 06:42:53;;;;;;;6.47;4.20;;;9.20;99.90;;;;;;5026135;28;20155;-85
2023/04/01 06:45:31;;;;;;;7.57;4.40;;;9.30;99.90;;;;;;5011687;28;20047;-86
2023/04/01 06:48:15;;;;;;;9.38;4.85;;;9.30;99.90;;;;;;5018789;28;20062;-86
2023/04/01 06:50:55;;;;;;;10.43;5.20;;;9.30;99.90;;;;;;5026193;28;20395;-86
2023/04/01 06:53:40;;;;;;;9.10;4.82;;;9.30;99.90;;;;;;5027687;28;20056;-86
2023/04/01 06:56:10;;;;;;;13.43;5.63;;;9.30;99.90;;;;;;5006765;28;20088;-86
2023/04/01 06:58:48;;;;;;;10.02;4.90;;;9.40;99.90;;;;;;5009302;28;20052;-84
2023/04/01 07:01:20;;;;;;;11.00;5.22;;;9.30;99.90;;;;;;5027983;28;20029;-85
2023/04/01 07:03:59;;;;;;;9.90;5.38;;;9.40;99.90;;;;;;5029321;28;20401;-85
2023/04/01 07:06:50;;;;;;;7.07;5.03;;;9.40;99.90;;;;;;5023535;28;20109;-84
2023/04/01 07:09:22;;;;;;;9.18;4.80;;;9.40;99.90;;;;;;5012832;28;20512;-85
2023/04/01 07:11:47;;;;;;;8.30;3.83;;;9.30;99.90;;;;;;5030184;28;20045;-85
2023/04/01 07:14:36;;;;;;;9.48;4.05;;;9.30;99.90;;;;;;5030176;28;20055;-84
2023/04/01 07:17:14;;;;;;;7.10;4.35;;;9.40;99.90;;;;;;5030623;28;20041;-84
2023/04/01 07:19:48;;;;;;;7.43;4.30;;;9.40;99.90;;;;;;5026755;28;20068;-84
2023/04/01 07:22:32;;;;;;;7.38;4.03;;;9.40;99.90;;;;;;5013011;28;20029;-84
2023/04/01 07:25:30;;;;;;;6.13;3.65;;;9.30;99.90;;;;;;5028310;28;20117;-84
2023/04/01 07:28:12;;;;;;;6.22;3.60;;;9.40;99.90;;;;;;5020316;28;20128;-84
2023/04/01 07:31:07;;;;;;;6.53;3.90;;;9.40;99.90;;;;;;5001190;28;20480;-84
2023/04/01 07:33:50;;;;;;;5.72;3.28;;;9.60;99.90;;;;;;5015295;28;20397;-84
2023/04/01 07:36:38;;;;;;;5.82;2.72;;;9.60;99.90;;;;;;5026692;28;20167;-86
2023/04/01 07:39:21;;;;;;;7.45;3.05;;;9.70;99.90;;;;;;5030337;28;20039;-84
2023/04/01 07:41:55;;;;;;;6.30;3.05;;;9.70;99.90;;;;;;5029098;28;20052;-87
2023/04/01 07:44:32;;;;;;;5.00;2.60;;;9.80;99.90;;;;;;5029919;28;20113;-83
2023/04/01 07:47:21;;;;;;;5.05;2.67;;;9.80;99.90;;;;;;5033294;28;20052;-82
2023/04/01 07:50:08;;;;;;;5.07;2.50;;;9.90;99.90;;;;;;5027298;28;20054;-85
2023/04/01 07:52:48;;;;;;;3.97;2.17;;;10.00;99.90;;;;;;5029500;28;20043;-82
2023/04/01 07:55:42;;;;;;;5.32;2.63;;;10.00;99.90;;;;;;5033343;28;20033;-88
2023/04/01 07:58:32;;;;;;;4.78;2.28;;;10.00;99.90;;;;;;5025204;28;20064;-87
2023/04/01 08:01:23;;;;;;;4.20;2.50;;;9.90;99.90;;;;;;5037908;23;20506;-85
2023/04/01 08:04:02;;;;;;;1.50;1.00;;;9.80;99.90;;;;;;5009478;28;20068;-83
2023/04/01 08:06:43;;;;;;;1.70;0.82;;;9.40;99.80;;;;;;5019035;28;20033;-81
2023/04/01 08:09:08;;;;;;;;;;;9.10;99.70;;;;;;5025816;28;20044;-82
2023/04/01 08:12:00;;;;;;;0.88;0.60;;;8.80;99.60;;;;;;5012071;28;20012;-83
2023/04/01 08:14:50;;;;;;;1.40;0.90;;;8.70;99.80;;;;;;4990002;28;20346;-82
2023/04/01 08:17:42;;;;;;;1.45;0.90;;;8.50;99.50;;;;;;5003619;28;20083;-84
2023/04/01 08:20:31;;;;;;;2.05;0.80;;;8.20;99.30;;;;;;5004455;28;20111;-80
2023/04/01 08:23:38;;;;;;;0.80;0.57;;;8.30;99.50;;;;;;5006700;28;20504;-85
2023/04/01 08:26:17;;;;;;;1.90;0.80;;;8.10;99.10;;;;;;4928521;29;20032;-84
2023/04/01 08:28:55;;;;;;;1.05;0.77;;;8.20;99.50;;;;;;4929793;29;20094;-84
2023/04/01 08:31:23;;;;;;;0.85;0.77;;;8.30;99.40;;;;;;4974728;28;20179;-85
2023/04/01 08:33:52;;;;;;;0.80;0.77;;;8.20;99.40;;;;;;5005688;28;20061;-84
2023/04/01 08:36:22;;;;;;;0.80;0.80;;;8.30;99.60;;;;;;5002397;28;20122;-85
2023/04/01 08:39:10;;;;;;;1.38;0.80;;;8.30;99.50;;;;;;4984781;28;20063;-85
2023/04/01 08:41:56;;;;;;;0.98;0.75;;;8.20;99.50;;;;;;5007956;28;20430;-84
2023/04/01 08:44:38;;;;;;;0.50;0.50;;;8.20;99.20;;;;;;4988596;28;20316;-85
2023/04/01 08:47:36;;;;;;;1.30;0.60;;;8.10;99.30;;;;;;5007337;28;20144;-85
2023/04/01 08:50:23;;;;;;;0.60;0.60;;;8.10;99.20;;;;;;5006250;28;20355;-84
2023/04/01 08:53:10;;;;;;;0.98;0.60;;;7.90;99.20;;;;;;5008173;28;20128;-85
2023/04/01 08:55:50;;;;;;;0.50;0.50;;;7.80;99.20;;;;;;5008627;28;20066;-85
2023/04/01 08:58:44;;;;;;;0.83;0.63;;;7.70;99.30;;;;;;4996235;28;20487;-83
2023/04/01 09:01:29;;;;;;;0.60;0.55;;;7.70;99.10;;;;;;4990882;28;20044;-84
2023/04/01 09:04:18;;;;;;;2.78;0.60;;;7.80;99.30;;;;;;5008592;28;20138;-84
2023/04/01 09:06:51;;;;;;;0.77;0.50;;;7.90;99.40;;;;;;5002542;28;20049;-84
2023/04/01 09:09:57;;;;;;;1.88;0.47;;;7.90;99.00;;;;;;5012484;28;20029;-83
2023/04/01 09:12:28;;;;;;;0.65;0.50;;;7.90;99.20;;;;;;5004956;28;20036;-84
2023/04/01 09:15:32;;;;;;;0.68;0.55;;;7.70;99.00;;;;;;5007169;28;20112;-84
2023/04/01 09:18:12;;;;;;;0.90;0.60;;;7.60;98.60;;;;;;5002243;28;20432;-85
2023/04/01 09:20:56;;;;;;;1.30;0.50;;;7.70;99.00;;;;;;5007506;28;20048;-85
2023/04/01 09:23:46;;;;;;;0.75;0.50;;;7.50;98.80;;;;;;5002229;28;20045;-85
2023/04/01 09:26:44;;;;;;;0.60;0.50;;;7.50;98.80;;;;;;4972080;28;20380;-80
2023/04/01 09:29:21;;;;;;;0.77;0.60;;;7.60;99.10;;;;;;5001065;28;20098;-80
2023/04/01 09:32:07;;;;;;;0.40;0.40;;;7.50;99.10;;;;;;5004087;28;20092;-81
2023/04/01 09:34:57;;;;;;;1.25;0.80;;;7.50;98.70;;;;;;5007412;28;20037;-81
2023/04/01 09:37:31;;;;;;;0.70;0.60;;;7.50;99.00;;;;;;4996860;28;20030;-82
2023/04/01 09:40:18;;;;;;;1.05;0.60;;;7.60;99.10;;;;;;5006941;28;20034;-82
2023/04/01 09:43:24;;;;;;;1.27;0.70;;;7.50;98.80;;;;;;5006479;28;20072;-84
2023/04/01 09:46:10;;;;;;;1.00;0.70;;;7.40;98.70;;;;;;5007722;28;20061;-80
2023/04/01 09:49:24;;;;;;;1.30;0.70;;;7.50;98.80;;;;;;5003120;28;20025;-81
2023/04/01 09:51:58;;;;;;;0.98;0.70;;;7.50;98.80;;;;;;5005065;28;20076;-79
2023/04/01 09:54:52;;;;;;;0.77;0.60;;;7.50;98.80;;;;;;5006980;28;20043;-81
2023/04/01 09:57:39;;;;;;;1.10;0.70;;;7.60;98.80;;;;;;5003379;28;20017;-81
2023/04/01 10:00:29;;;;;;;0.88;0.60;;;7.60;98.40;;;;;;5007793;28;20056;-82
2023/04/01 10:03:36;;;;;;;1.05;0.80;;;7.40;98.10;;;;;;4978502;28;20065;-82
2023/04/01 10:06:08;;;;;;;1.30;0.75;;;7.30;97.90;;;;;;5010437;28;20060;-82
2023/04/01 10:09:02;;;;;;;1.08;0.68;;;7.60;98.20;;;;;;5002608;28;20400;-81
2023/04/01 10:12:06;;;;;;;1.15;0.73;;;7.50;98.30;;;;;;4999535;28;20145;-83
2023/04/01 10:14:50;;;;;;;1.23;0.85;;;7.30;98.00;;;;;;4989772;28;20100;-81
2023/04/01 10:17:40;;;;;;;1.52;1.00;;;7.20;98.10;;;;;;5004954;28;20184;-69
2023/04/01 10:20:34;;;;;;;2.20;1.10;;;7.40;98.40;;;;;;4982633;28;20034;-78
2023/04/01 10:23:21;;;;;;;2.15;0.98;;;7.50;98.30;;;;;;5001608;28;20034;-85
2023/04/01 10:26:25;;;;;;;1.65;1.08;;;7.40;98.10;;;;;;5000559;28;20053;-82
2023/04/01 10:29:20;;;;;;;2.15;0.90;;;7.50;98.40;;;;;;5005505;28;20108;-80
2023/04/01 10:32:30;;;;;;;1.50;0.80;;;7.60;98.40;;;;;;4995883;28;20022;-83
2023/04/01 10:35:33;;;;;;;0.90;0.70;;;7.60;98.30;;;;;;5009170;28;20072;-70
2023/04/01 10:38:16;;;;;;;1.60;0.80;;;7.90;98.50;;;;;;5008669;28;20124;-84
2023/04/01 10:41:11;;;;;;;0.93;0.82;;;7.70;98.00;;;;;;5004945;28;20037;-78
2023/04/01 10:43:58;;;;;;;1.35;0.88;;;7.50;97.90;;;;;;5002857;28;20448;-79
2023/04/01 10:47:09;;;;;;;1.92;0.95;;;7.30;97.60;;;;;;5008711;28;20052;-80
2023/04/01 10:49:37;;;;;;;1.20;0.75;;;7.40;98.20;;;;;;5004964;28;20092;-77
2023/04/01 10:52:32;;;;;;;1.27;0.88;;;7.40;98.10;;;;;;5007782;28;20052;-76
2023/04/01 10:55:31;;;;;;;1.30;0.98;;;7.30;98.00;;;;;;5011285;28;20029;-76
2023/04/01 10:58:20;;;;;;;1.60;0.90;;;7.30;97.70;;;;;;5011351;28;20034;-76
2023/04/01 11:01:22;;;;;;;1.17;0.98;;;7.40;98.10;;;;;;5005663;28;20435;-76
2023/04/01 11:04:31;;;;;;;1.80;1.08;;;7.30;98.00;;;;;;5005264;28;20022;-75
2023/04/01 11:07:35;;;;;;;1.10;0.80;;;7.30;98.30;;;;;;5007821;28;20446;-77
2023/04/01 11:10:48;;;;;;;2.78;1.00;;;7.10;97.80;;;;;;5001952;28;20056;-80
2023/04/01 11:13:32;;;;;;;1.30;0.90;;;7.20;98.10;;;;;;5012221;28;20083;-78
2023/04/01 11:16:03;;;;;;;1.58;0.80;;;7.30;98.20;;;;;;5009230;28;20018;-78
2023/04/01 11:18:58;;;;;;;1.13;0.90;;;7.40;98.10;;;;;;5002988;28;20081;-79
2023/04/01 11:21:50;;;;;;;1.65;0.85;;;7.40;97.70;;;;;;5007010;28;20430;-79
2023/04/01 11:24:48;;;;;;;0.93;0.80;;;7.60;97.90;;;;;;5008421;28;20021;-80
2023/04/01 11:27:37;;;;;;;0.82;0.70;;;7.50;97.50;;;;;;5000255;28;20092;-83
2023/04/01 11:30:33;;;;;;;0.82;0.63;;;7.40;97.30;;;;;;5007942;28;20029;-80
2023/04/01 11:33:15;;;;;;;1.70;0.68;;;7.50;97.50;;;;;;5011804;28;20041;-80
2023/04/01 11:36:21;;;;;;;2.20;0.82;;;7.50;97.40;;;;;;4999694;28;20081;-81
2023/04/01 11:39:13;;;;;;;1.95;0.80;;;7.60;97.50;;;;;;5006891;28;20034;-84
2023/04/01 11:42:06;;;;;;;0.85;0.70;;;7.40;97.30;;;;;;5008114;28;20030;-83
2023/04/01 11:44:39;;;;;;;0.90;0.55;;;7.30;97.30;;;;;;5008914;28;20074;-83
2023/04/01 11:47:24;;;;;;;0.70;0.60;;;7.30;97.40;;;;;;5007594;28;20018;-83
2023/04/01 11:50:15;;;;;;;1.00;0.70;;;7.50;97.50;;;;;;5002221;28;20088;-80
2023/04/01 11:53:18;;;;;;;0.70;0.70;;;7.70;97.50;;;;;;5012528;28;20033;-84
2023/04/01 11:55:50;;;;;;;0.73;0.57;;;7.50;96.90;;;;;;5003936;28;20021;-79
2023/04/01 11:58:42;;;;;;;1.15;0.60;;;7.60;96.50;;;;;;5004294;28;20022;-79
2023/04/01 12:01:14;;;;;;;1.30;0.60;;;7.70;96.70;;;;;;5005914;28;20505;-80
2023/04/01 12:04:04;;;;;;;2.53;0.80;;;8.00;96.70;;;;;;5008377;28;20045;-80
2023/04/01 12:07:02;;;;;;;1.35;0.70;;;7.80;96.00;;;;;;5003085;28;20025;-82
2023/04/01 12:10:03;;;;;;;1.05;0.60;;;7.80;96.10;;;;;;5007458;28;20516;-81
2023/04/01 12:13:06;;;;;;;1.10;0.50;;;7.80;96.70;;;;;;5009941;28;20097;-82
2023/04/01 12:16:05;;;;;;;1.42;0.60;;;7.70;96.60;;;;;;5003164;28;20061;-84
2023/04/01 12:18:54;;;;;;;0.80;0.45;;;7.70;96.50;;;;;;5004854;28;20107;-79
2023/04/01 12:21:44;;;;;;;2.08;0.60;;;7.80;96.50;;;;;;5005615;28;20097;-78
2023/04/01 12:24:28;;;;;;;0.52;0.50;;;7.70;96.20;;;;;;5012563;28;20030;-77
2023/04/01 12:27:15;;;;;;;0.88;0.50;;;7.80;96.20;;;;;;5007651;28;20419;-77
2023/04/01 12:30:05;;;;;;;2.42;0.88;;;7.70;96.60;;;;;;5005571;28;20030;-78
2023/04/01 12:32:57;;;;;;;0.85;0.60;;;7.70;96.90;;;;;;5015139;28;20059;-77
2023/04/01 12:35:36;;;;;;;1.13;0.50;;;7.50;96.40;;;;;;5004614;28;20064;-77
2023/04/01 12:38:17;;;;;;;1.17;0.60;;;7.70;97.40;;;;;;5004239;28;20025;-77
2023/04/01 12:40:55;;;;;;;0.65;0.57;;;7.80;97.30;;;;;;5004007;28;20445;-76
2023/04/01 12:43:53;;;;;;;1.17;0.73;;;7.60;97.00;;;;;;5008322;28;20033;-78
2023/04/01 12:46:39;;;;;;;1.48;0.73;;;7.70;96.70;;;;;;5005791;28;20108;-79
2023/04/01 12:49:34;;;;;;;3.03;1.10;;;7.70;96.90;;;;;;5002374;28;20033;-78
2023/04/01 12:52:11;;;;;;;2.10;1.00;;;7.70;96.90;;;;;;5000933;28;20407;-77
2023/04/01 12:54:40;;;;;;;3.05;1.30;;;7.60;96.40;;;;;;5006515;28;20029;-78
2023/04/01 12:57:33;;;;;;;1.70;0.80;;;7.60;96.70;;;;;;5001791;28;20040;-78
2023/04/01 13:00:13;;;;;;;2.35;1.25;;;7.50;96.30;;;;;;4984164;28;20045;-78
2023/04/01 13:02:41;;;;;;;5.00;1.58;;;7.50;96.60;;;;;;5006865;28;20160;-80
2023/04/01 13:05:31;;;;;;;3.55;1.48;;;7.40;96.40;;;;;;5005311;28;20109;-79
2023/04/01 13:08:11;;;;;;;3.92;1.48;;;7.40;96.40;;;;;;5007306;28;20073;-77
2023/04/01 13:11:02;;;;;;;5.22;2.22;;;7.50;96.90;;;;;;4988330;28;20071;-78
2023/04/01 13:13:28;;;;;;;;;;;7.30;96.60;;;;;;5009223;28;20327;-79
2023/04/01 13:16:36;;;;;;;3.15;1.77;;;7.40;96.60;;;;;;5001466;28;19928;-75
2023/04/01 13:19:25;;;;;;;4.03;1.95;;;7.30;96.10;;;;;;5006655;28;20351;-78
2023/04/01 13:22:17;;;;;;;3.03;1.77;;;7.30;96.20;;;;;;5007704;28;20078;-77
2023/04/01 13:24:51;;;;;;;4.35;1.77;;;7.20;96.40;;;;;;5002460;28;20026;-78
2023/04/01 13:27:26;;;;;;;4.30;2.10;;;7.20;96.80;;;;;;4999609;28;20081;-80
2023/04/01 13:30:27;;;;;;;3.97;2.10;;;7.20;96.80;;;;;;5003628;28;20065;-77
2023/04/01 13:33:04;;;;;;;4.07;2.15;;;7.10;96.80;;;;;;5002627;28;20407;-77
2023/04/01 13:35:53;;;;;;;3.85;2.15;;;7.00;96.70;;;;;;5000721;28;20310;-78
2023/04/01 13:38:50;;;;;;;5.53;2.40;;;7.00;96.60;;;;;;4999449;28;20025;-77
2023/04/01 13:41:36;;;;;;;4.63;2.38;;;6.90;96.80;;;;;;5005016;28;20595;-76
2023/04/01 13:44:30;;;;;;;4.32;2.45;;;6.90;96.80;;;;;;5004873;28;20374;-76
2023/04/01 13:47:14;;;;;;;4.85;2.58;;;6.90;96.90;;;;;;4993209;28;20129;-76
2023/04/01 13:50:09;;;;;;;5.25;2.65;;;6.90;96.90;;;;;;5002059;28;20682;-77